createdAt,value
2019-04-06T00:01:32.999Z,13.40
2019-04-06T00:04:03.552Z,13.40
2019-04-06T00:06:35.315Z,13.40
2019-04-06T00:09:07.443Z,13.30
2019-04-06T00:11:38.098Z,13.30
2019-04-06T00:14:08.734Z,13.40
2019-04-06T00:16:41.630Z,13.40
2019-04-06T00:19:12.223Z,13.40
2019-04-06T00:21:42.298Z,13.30
2019-04-06T00:24:12.824Z,13.30
2019-04-06T00:26:46.207Z,13.30
2019-04-06T00:29:17.840Z,13.30
2019-04-06T00:31:53.208Z,13.30
2019-04-06T00:34:23.817Z,13.30
2019-04-06T00:36:55.494Z,13.30
2019-04-06T00:39:26.115Z,13.30
2019-04-06T00:41:56.933Z,13.30
2019-04-06T00:44:27.058Z,13.30
2019-04-06T00:46:58.822Z,13.30
2019-04-06T00:49:30.333Z,13.30
2019-04-06T00:52:00.978Z,13.40
2019-04-06T00:54:31.040Z,13.40
2019-04-06T00:57:03.816Z,13.40
2019-04-06T00:59:34.438Z,13.30
2019-04-06T01:02:06.178Z,13.40
2019-04-06T01:04:36.703Z,13.30
2019-04-06T01:07:08.489Z,13.30
2019-04-06T01:09:38.445Z,13.30
2019-04-06T01:12:09.238Z,13.30
2019-04-06T01:14:39.876Z,13.30
2019-04-06T01:17:11.614Z,13.30
2019-04-06T01:19:42.133Z,13.30
2019-04-06T01:22:12.783Z,13.20
2019-04-06T01:24:43.384Z,13.20
2019-04-06T01:27:15.056Z,13.20
2019-04-06T01:29:45.616Z,13.20
2019-04-06T01:32:16.394Z,13.10
2019-04-06T01:34:46.929Z,13.10
2019-04-06T01:37:19.761Z,13.10
2019-04-06T01:39:51.495Z,13.10
2019-04-06T01:42:21.667Z,13.10
2019-04-06T01:44:51.627Z,13.10
2019-04-06T01:47:22.793Z,13.00
2019-04-06T01:49:53.950Z,13.00
2019-04-06T01:52:24.068Z,12.90
2019-04-06T01:54:54.589Z,12.90
2019-04-06T01:57:26.337Z,12.90
2019-04-06T01:59:56.852Z,12.90
2019-04-06T02:02:31.928Z,12.90
2019-04-06T02:05:02.505Z,12.90
2019-04-06T02:07:34.300Z,12.90
2019-04-06T02:10:11.882Z,12.90
2019-04-06T02:12:42.014Z,12.80
2019-04-06T02:15:12.761Z,12.70
2019-04-06T02:17:44.474Z,12.70
2019-04-06T02:20:14.530Z,12.70
2019-04-06T02:22:45.166Z,12.70
2019-04-06T02:25:15.709Z,12.70
2019-04-06T02:27:47.424Z,12.70
2019-04-06T02:30:22.142Z,12.70
2019-04-06T02:33:02.916Z,12.70
2019-04-06T02:35:38.286Z,12.70
2019-04-06T02:38:26.811Z,12.70
2019-04-06T02:41:04.879Z,12.70
2019-04-06T02:43:36.729Z,12.70
2019-04-06T02:46:07.250Z,12.60
2019-04-06T02:48:37.876Z,12.60
2019-04-06T02:51:08.487Z,12.60
2019-04-06T02:53:38.529Z,12.70
2019-04-06T02:56:09.314Z,12.70
2019-04-06T02:58:39.535Z,12.60
2019-04-06T03:01:10.053Z,12.60
2019-04-06T03:03:40.993Z,12.60
2019-04-06T03:06:11.685Z,12.60
2019-04-06T03:08:42.354Z,12.60
2019-04-06T03:11:13.033Z,12.50
2019-04-06T03:13:43.796Z,12.50
2019-04-06T03:16:14.325Z,12.50
2019-04-06T03:18:44.500Z,12.40
2019-04-06T03:21:15.130Z,12.40
2019-04-06T03:23:51.605Z,12.40
2019-04-06T03:26:17.725Z,12.40
2019-04-06T03:28:48.519Z,12.50
2019-04-06T03:31:23.459Z,12.50
2019-04-06T03:33:50.887Z,12.50
2019-04-06T03:36:20.863Z,12.50
2019-04-06T03:38:51.636Z,12.50
2019-04-06T03:41:21.902Z,12.40
2019-04-06T03:43:52.708Z,12.40
2019-04-06T03:46:23.258Z,12.40
2019-04-06T03:48:53.992Z,12.40
2019-04-06T03:51:26.408Z,12.40
2019-04-06T03:53:57.227Z,12.40
2019-04-06T03:56:27.839Z,12.40
2019-04-06T03:58:58.676Z,12.40
2019-04-06T04:01:28.748Z,12.40
2019-04-06T04:03:59.097Z,12.40
2019-04-06T04:06:30.893Z,12.50
2019-04-06T04:09:01.052Z,12.50
2019-04-06T04:11:32.878Z,12.50
2019-04-06T04:14:02.962Z,12.50
2019-04-06T04:16:34.173Z,12.50
2019-04-06T04:19:04.404Z,12.50
2019-04-06T04:21:35.252Z,12.50
2019-04-06T04:24:05.944Z,12.40
2019-04-06T04:26:38.556Z,12.40
2019-04-06T04:29:09.346Z,12.40
2019-04-06T04:31:39.977Z,12.30
2019-04-06T04:34:10.197Z,12.30
2019-04-06T04:36:41.855Z,12.30
2019-04-06T04:39:12.655Z,12.30
2019-04-06T04:41:42.696Z,12.30
2019-04-06T04:44:12.862Z,12.30
2019-04-06T04:46:44.698Z,12.30
2019-04-06T04:49:15.454Z,12.30
2019-04-06T04:51:46.445Z,12.30
2019-04-06T04:54:17.192Z,12.30
2019-04-06T04:56:51.343Z,12.30
2019-04-06T04:59:22.037Z,12.40
2019-04-06T05:01:52.796Z,12.40
2019-04-06T05:04:23.616Z,12.40
2019-04-06T05:06:55.395Z,12.40
2019-04-06T05:09:26.129Z,12.40
2019-04-06T05:11:57.548Z,12.50
2019-04-06T05:14:59.131Z,12.50
2019-04-06T05:17:31.553Z,12.50
2019-04-06T05:20:02.501Z,12.50
2019-04-06T05:22:32.647Z,12.50
2019-04-06T05:25:03.529Z,12.50
2019-04-06T05:27:35.234Z,12.50
2019-04-06T05:30:08.219Z,12.50
2019-04-06T05:32:38.839Z,12.50
2019-04-06T05:35:10.080Z,12.60
2019-04-06T05:37:41.874Z,12.60
2019-04-06T05:40:12.721Z,12.70
2019-04-06T05:42:43.241Z,12.60
2019-04-06T05:45:14.208Z,12.70
2019-04-06T05:47:46.849Z,12.70
2019-04-06T05:50:17.603Z,12.70
2019-04-06T05:52:47.580Z,12.80
2019-04-06T05:55:18.289Z,12.80
2019-04-06T05:57:50.144Z,12.80
2019-04-06T06:00:21.022Z,12.80
2019-04-06T06:02:51.629Z,12.90
2019-04-06T06:05:22.517Z,12.90
2019-04-06T06:07:53.062Z,12.90
2019-04-06T06:10:23.157Z,12.90
2019-04-06T06:12:53.851Z,12.90
2019-04-06T06:15:24.717Z,12.90
2019-04-06T06:17:56.348Z,12.90
2019-04-06T06:20:26.427Z,12.80
2019-04-06T06:22:57.074Z,12.80
2019-04-06T06:25:27.725Z,12.80
2019-04-06T06:27:59.435Z,12.80
2019-04-06T06:30:30.172Z,12.90
2019-04-06T06:33:00.125Z,12.90
2019-04-06T06:35:30.994Z,12.90
2019-04-06T06:38:02.733Z,13.00
2019-04-06T06:40:33.708Z,13.10
2019-04-06T06:43:04.730Z,13.10
2019-04-06T06:45:35.486Z,13.00
2019-04-06T06:48:06.708Z,13.00
2019-04-06T06:50:37.372Z,13.10
2019-04-06T06:53:09.071Z,13.20
2019-04-06T06:55:39.821Z,13.30
2019-04-06T06:58:12.756Z,13.30
2019-04-06T07:00:44.388Z,13.20
2019-04-06T07:03:14.996Z,13.30
2019-04-06T07:05:45.228Z,13.50
2019-04-06T07:08:15.884Z,13.40
2019-04-06T07:10:46.620Z,13.30
2019-04-06T07:13:17.389Z,13.40
2019-04-06T07:15:48.111Z,13.50
2019-04-06T07:18:18.777Z,13.50
2019-04-06T07:20:49.444Z,13.60
2019-04-06T07:23:19.970Z,13.60
2019-04-06T07:25:57.574Z,13.70
2019-04-06T07:28:22.892Z,13.70
2019-04-06T07:30:53.546Z,13.80
2019-04-06T07:33:24.109Z,13.80
2019-04-06T07:35:54.912Z,14.00
2019-04-06T07:38:27.232Z,14.10
2019-04-06T07:40:58.962Z,14.10
2019-04-06T07:43:29.615Z,14.00
2019-04-06T07:46:00.280Z,13.80
2019-04-06T07:48:32.085Z,13.80
2019-04-06T07:51:02.996Z,14.00
2019-04-06T07:53:34.178Z,13.80
2019-04-06T07:56:05.016Z,14.00
2019-04-06T07:58:35.556Z,14.00
2019-04-06T08:01:06.304Z,13.90
2019-04-06T08:03:37.197Z,14.00
2019-04-06T08:06:08.319Z,14.00
2019-04-06T08:08:39.107Z,14.10
2019-04-06T08:11:09.770Z,14.00
2019-04-06T08:13:40.306Z,14.00
2019-04-06T08:16:11.075Z,14.00
2019-04-06T08:18:41.697Z,14.10
2019-04-06T08:21:12.572Z,14.20
2019-04-06T08:23:43.183Z,14.00
2019-04-06T08:26:13.903Z,14.10
2019-04-06T08:28:44.470Z,14.10
2019-04-06T08:31:15.139Z,14.20
2019-04-06T08:33:45.747Z,14.20
2019-04-06T08:36:17.527Z,14.10
2019-04-06T08:38:48.083Z,14.00
2019-04-06T08:41:18.809Z,14.00
2019-04-06T08:43:49.369Z,14.00
2019-04-06T08:46:20.129Z,14.00
2019-04-06T08:48:50.762Z,13.90
2019-04-06T08:51:21.398Z,13.70
2019-04-06T08:53:53.182Z,13.60
2019-04-06T08:56:23.843Z,13.80
2019-04-06T08:58:54.386Z,13.90
2019-04-06T09:01:25.184Z,14.00
2019-04-06T09:03:55.255Z,13.90
2019-04-06T09:06:25.991Z,13.80
2019-04-06T09:08:56.543Z,13.70
2019-04-06T09:11:27.514Z,13.80
2019-04-06T09:13:58.273Z,13.70
2019-04-06T09:16:28.465Z,13.80
2019-04-06T09:18:59.103Z,13.90
2019-04-06T09:21:29.869Z,13.90
2019-04-06T09:24:00.634Z,13.80
2019-04-06T09:26:32.451Z,13.90
2019-04-06T09:29:03.001Z,14.00
2019-04-06T09:31:33.852Z,14.20
2019-04-06T09:34:04.450Z,14.30
2019-04-06T09:36:38.332Z,14.40
2019-04-06T09:39:08.983Z,14.50
2019-04-06T09:41:39.670Z,14.60
2019-04-06T09:44:12.932Z,14.60
2019-04-06T09:47:04.744Z,14.70
2019-04-06T09:49:53.166Z,14.70
2019-04-06T09:52:25.731Z,14.60
2019-04-06T09:55:01.211Z,14.70
2019-04-06T09:57:35.690Z,14.70
2019-04-06T10:00:25.884Z,14.90
2019-04-06T10:03:14.535Z,14.80
2019-04-06T10:05:49.647Z,14.80
2019-04-06T10:08:33.054Z,14.80
2019-04-06T10:11:11.138Z,15.10
2019-04-06T10:14:00.167Z,15.10
2019-04-06T10:16:39.401Z,15.10
2019-04-06T10:19:18.909Z,15.20
2019-04-06T10:21:56.760Z,15.40
2019-04-06T10:24:40.893Z,15.50
2019-04-06T10:27:29.526Z,15.50
2019-04-06T10:30:18.168Z,15.50
2019-04-06T10:32:50.846Z,15.40
2019-04-06T10:35:24.307Z,15.40
2019-04-06T10:38:13.193Z,15.20
2019-04-06T10:41:01.921Z,15.20
2019-04-06T10:43:58.764Z,15.10
2019-04-06T10:46:44.335Z,15.10
2019-04-06T10:49:28.650Z,15.20
2019-04-06T10:52:00.983Z,15.10
2019-04-06T10:54:51.392Z,15.10
2019-04-06T10:57:26.875Z,15.10
2019-04-06T11:00:14.492Z,15.20
2019-04-06T11:02:49.978Z,15.40
2019-04-06T11:05:47.512Z,15.60
2019-04-06T11:08:24.864Z,15.60
2019-04-06T11:11:11.100Z,15.60
2019-04-06T11:13:46.159Z,15.60
2019-04-06T11:16:24.339Z,15.60
2019-04-06T11:19:11.600Z,15.70
2019-04-06T11:21:43.842Z,15.70
2019-04-06T11:24:28.255Z,15.50
2019-04-06T11:27:12.678Z,15.60
2019-04-06T11:29:57.420Z,15.80
2019-04-06T11:32:38.632Z,15.80
2019-04-06T11:35:17.408Z,15.80
2019-04-06T11:37:55.541Z,15.90
2019-04-06T11:40:28.232Z,15.80
2019-04-06T11:43:16.724Z,15.70
2019-04-06T11:45:58.175Z,15.80
2019-04-06T11:48:45.306Z,16.00
2019-04-06T11:51:17.679Z,16.00
2019-04-06T11:53:49.968Z,16.00
2019-04-06T11:56:24.420Z,16.00
2019-04-06T11:58:56.841Z,16.00
2019-04-06T12:01:36.944Z,16.00
2019-04-06T12:04:27.781Z,15.90
2019-04-06T12:07:18.589Z,15.90
2019-04-06T12:09:50.885Z,16.00
2019-04-06T12:12:23.105Z,15.90
2019-04-06T12:14:55.327Z,15.80
2019-04-06T12:17:34.537Z,15.80
2019-04-06T12:20:14.361Z,15.80
2019-04-06T12:22:50.077Z,15.90
2019-04-06T12:25:27.557Z,15.80
2019-04-06T12:28:16.269Z,15.80
2019-04-06T12:30:54.327Z,15.90
2019-04-06T12:33:27.487Z,15.80
2019-04-06T12:35:59.995Z,15.80
2019-04-06T12:38:44.291Z,16.00
2019-04-06T12:41:26.205Z,16.00
2019-04-06T12:43:58.771Z,16.00
2019-04-06T12:46:47.422Z,16.10
2019-04-06T12:49:32.030Z,16.20
2019-04-06T12:52:16.095Z,16.00
2019-04-06T12:54:48.267Z,16.10
2019-04-06T12:57:26.358Z,16.10
2019-04-06T13:00:01.527Z,15.90
2019-04-06T13:02:41.227Z,16.00
2019-04-06T13:05:16.648Z,16.20
2019-04-06T13:07:49.199Z,16.20
2019-04-06T13:10:21.425Z,16.30
2019-04-06T13:12:54.100Z,16.20
2019-04-06T13:15:38.771Z,16.20
2019-04-06T13:18:16.707Z,16.30
2019-04-06T13:20:52.011Z,16.20
2019-04-06T13:23:24.243Z,16.10
2019-04-06T13:25:56.402Z,16.10
2019-04-06T13:28:41.084Z,16.20
2019-04-06T13:31:13.332Z,16.30
2019-04-06T13:33:54.637Z,16.30
2019-04-06T13:36:27.029Z,16.30
2019-04-06T13:39:14.578Z,16.30
2019-04-06T13:42:03.475Z,16.30
2019-04-06T13:44:38.664Z,16.40
2019-04-06T13:47:28.354Z,16.40
2019-04-06T13:50:00.665Z,16.40
2019-04-06T13:52:49.380Z,16.30
2019-04-06T13:55:24.211Z,16.20
2019-04-06T13:58:02.985Z,16.30
2019-04-06T14:00:50.604Z,16.30
2019-04-06T14:03:22.939Z,16.10
2019-04-06T14:06:11.576Z,16.30
2019-04-06T14:08:50.002Z,16.20
2019-04-06T14:11:31.866Z,16.20
2019-04-06T14:14:04.235Z,16.10
2019-04-06T14:16:52.635Z,16.20
2019-04-06T14:19:43.134Z,16.20
2019-04-06T14:22:30.280Z,16.30
2019-04-06T14:25:08.429Z,16.40
2019-04-06T14:27:43.811Z,16.40
2019-04-06T14:30:28.079Z,16.50
2019-04-06T14:33:00.270Z,16.30
2019-04-06T14:35:38.710Z,16.20
2019-04-06T14:38:23.389Z,16.20
2019-04-06T14:41:04.531Z,16.10
2019-04-06T14:43:43.463Z,16.10
2019-04-06T14:46:21.425Z,16.10
2019-04-06T14:49:14.112Z,16.00
2019-04-06T14:51:55.641Z,16.00
2019-04-06T14:54:37.148Z,16.00
2019-04-06T14:57:09.417Z,16.00
2019-04-06T14:59:47.256Z,16.00
2019-04-06T15:02:34.913Z,15.90
2019-04-06T15:05:08.912Z,15.90
2019-04-06T15:07:58.994Z,15.90
2019-04-06T15:10:31.744Z,15.90
2019-04-06T15:13:06.806Z,15.90
2019-04-06T15:15:41.971Z,15.90
2019-04-06T15:18:30.726Z,15.80
2019-04-06T15:21:15.274Z,15.90
2019-04-06T15:23:47.656Z,15.90
2019-04-06T15:26:36.371Z,15.80
2019-04-06T15:29:20.829Z,15.80
2019-04-06T15:31:54.224Z,15.80
2019-04-06T15:34:43.004Z,15.80
2019-04-06T15:37:19.101Z,15.80
2019-04-06T15:39:57.414Z,15.80
2019-04-06T15:42:35.736Z,15.90
2019-04-06T15:45:08.467Z,15.80
2019-04-06T15:48:00.374Z,15.70
2019-04-06T15:50:32.918Z,15.70
2019-04-06T15:53:05.254Z,15.70
2019-04-06T15:55:50.011Z,15.70
2019-04-06T15:58:39.835Z,15.60
2019-04-06T16:01:12.195Z,15.60
2019-04-06T16:03:48.613Z,15.50
2019-04-06T16:06:32.752Z,15.60
2019-04-06T16:09:16.950Z,15.50
2019-04-06T16:12:05.647Z,15.50
2019-04-06T16:14:47.228Z,15.40
2019-04-06T16:17:33.879Z,15.50
2019-04-06T16:20:17.399Z,15.40
2019-04-06T16:22:55.672Z,15.30
2019-04-06T16:25:28.161Z,15.30
2019-04-06T16:28:03.908Z,15.20
2019-04-06T16:30:52.634Z,15.30
2019-04-06T16:33:35.774Z,15.20
2019-04-06T16:39:12.306Z,15.20
2019-04-06T16:41:45.812Z,15.10
2019-04-06T16:44:18.218Z,15.10
2019-04-06T16:47:03.483Z,15.10
2019-04-06T16:49:42.119Z,15.10
2019-04-06T16:52:17.584Z,15.00
2019-04-06T16:54:52.939Z,15.00
2019-04-06T16:57:28.337Z,15.00
2019-04-06T17:00:01.217Z,14.90
2019-04-06T17:02:49.310Z,14.90
2019-04-06T17:05:28.647Z,14.80
2019-04-06T17:08:19.106Z,14.80
2019-04-06T17:11:09.296Z,14.80
2019-04-06T17:13:44.530Z,14.80
2019-04-06T17:16:35.067Z,14.70
2019-04-06T17:19:10.315Z,14.70
2019-04-06T17:21:46.677Z,14.70
2019-04-06T17:24:30.766Z,14.60
2019-04-06T17:27:12.723Z,14.70
2019-04-06T17:29:51.586Z,14.60
2019-04-06T17:32:34.740Z,14.60
2019-04-06T17:35:10.447Z,14.60
2019-04-06T17:38:00.772Z,14.50
2019-04-06T17:40:33.396Z,14.50
2019-04-06T17:43:06.330Z,14.50
2019-04-06T17:45:41.428Z,14.40
2019-04-06T17:48:16.862Z,14.40
2019-04-06T17:50:49.170Z,14.30
2019-04-06T17:53:27.753Z,14.30
2019-04-06T17:56:16.280Z,14.20
2019-04-06T17:59:06.399Z,14.20
2019-04-06T18:01:47.840Z,14.10
2019-04-06T18:04:26.029Z,14.10
2019-04-06T18:07:05.905Z,14.00
2019-04-06T18:09:54.672Z,14.00
2019-04-06T18:12:26.880Z,14.00
2019-04-06T18:14:57.582Z,13.90
2019-04-06T18:17:28.433Z,13.90
2019-04-06T18:19:59.702Z,13.80
2019-04-06T18:22:29.690Z,13.80
2019-04-06T18:24:59.890Z,13.80
2019-04-06T18:27:31.723Z,13.80
2019-04-06T18:30:02.344Z,13.70
2019-04-06T18:32:35.268Z,13.70
2019-04-06T18:35:08.560Z,13.70
2019-04-06T18:37:48.018Z,13.70
2019-04-06T18:40:20.540Z,13.70
2019-04-06T18:42:51.170Z,13.70
2019-04-06T18:45:22.021Z,13.70
2019-04-06T18:47:53.114Z,13.70
2019-04-06T18:50:33.275Z,13.60
2019-04-06T18:52:56.704Z,13.70
2019-04-06T18:55:27.764Z,13.60
2019-04-06T18:58:08.732Z,13.60
2019-04-06T19:00:32.094Z,13.50
2019-04-06T19:03:12.720Z,13.50
2019-04-06T19:05:35.788Z,13.50
2019-04-06T19:08:06.893Z,13.50
2019-04-06T19:10:38.151Z,13.40
2019-04-06T19:13:09.115Z,13.30
2019-04-06T19:15:39.894Z,13.30
2019-04-06T19:18:11.931Z,13.20
2019-04-06T19:20:43.253Z,13.20
2019-04-06T19:23:13.739Z,13.20
2019-04-06T19:25:44.294Z,13.10
2019-04-06T19:28:14.514Z,13.10
2019-04-06T19:30:45.398Z,13.10
2019-04-06T19:33:23.750Z,13.00
2019-04-06T19:35:48.385Z,13.00
2019-04-06T19:38:19.001Z,13.00
2019-04-06T19:40:50.444Z,13.00
2019-04-06T19:43:21.188Z,13.00
2019-04-06T19:45:51.948Z,13.00
2019-04-06T19:48:22.751Z,12.90
2019-04-06T19:50:53.239Z,12.80
2019-04-06T19:53:23.297Z,12.80
2019-04-06T19:55:56.420Z,12.80
2019-04-06T19:58:27.202Z,12.80
2019-04-06T20:00:58.678Z,12.70
2019-04-06T20:03:34.626Z,12.70
2019-04-06T20:06:01.250Z,12.70
2019-04-06T20:08:32.881Z,12.80
2019-04-06T20:11:03.704Z,12.70
2019-04-06T20:13:34.407Z,12.80
2019-04-06T20:16:04.724Z,12.70
2019-04-06T20:18:35.641Z,12.80
2019-04-06T20:21:06.739Z,12.70
2019-04-06T20:23:36.726Z,12.70
2019-04-06T20:26:07.925Z,12.70
2019-04-06T20:28:39.005Z,12.70
2019-04-06T20:31:10.509Z,12.70
2019-04-06T20:33:48.167Z,12.70
2019-04-06T20:36:13.087Z,12.70
2019-04-06T20:38:43.837Z,12.60
2019-04-06T20:41:14.041Z,12.70
2019-04-06T20:43:44.303Z,12.60
2019-04-06T20:46:15.265Z,12.60
2019-04-06T20:48:46.023Z,12.50
2019-04-06T20:51:16.778Z,12.50
2019-04-06T20:53:46.907Z,12.50
2019-04-06T20:56:17.190Z,12.40
2019-04-06T20:58:47.876Z,12.40
2019-04-06T21:01:19.150Z,12.40
2019-04-06T21:03:59.219Z,12.50
2019-04-06T21:06:21.694Z,12.40
2019-04-06T21:08:52.629Z,12.40
2019-04-06T21:11:23.205Z,12.40
2019-04-06T21:13:53.898Z,12.30
2019-04-06T21:16:25.705Z,12.30
2019-04-06T21:18:56.781Z,12.40
2019-04-06T21:21:28.007Z,12.40
2019-04-06T21:23:59.802Z,12.30
2019-04-06T21:26:31.325Z,12.30
2019-04-06T21:29:02.556Z,12.30
2019-04-06T21:31:52.794Z,12.30
2019-04-06T21:34:23.692Z,12.30
2019-04-06T21:36:55.626Z,12.30
2019-04-06T21:39:26.891Z,12.20
2019-04-06T21:41:58.146Z,12.20
2019-04-06T21:44:28.301Z,12.20
2019-04-06T21:46:59.059Z,12.20
2019-04-06T21:49:41.326Z,12.30
2019-04-06T21:52:11.514Z,12.20
2019-04-06T21:55:00.936Z,12.30
2019-04-06T21:57:31.328Z,12.30
2019-04-06T22:00:02.104Z,12.30
2019-04-06T22:02:35.563Z,12.30
2019-04-06T22:05:09.312Z,12.30
2019-04-06T22:07:48.637Z,12.20
2019-04-06T22:10:11.797Z,12.20
2019-04-06T22:12:43.163Z,12.20
2019-04-06T22:15:15.254Z,12.30
2019-04-06T22:17:45.525Z,12.20
2019-04-06T22:20:15.717Z,12.20
2019-04-06T22:22:46.989Z,12.10
2019-04-06T22:25:17.672Z,12.00
2019-04-06T22:27:50.241Z,12.00
2019-04-06T22:30:21.033Z,11.90
2019-04-06T22:32:51.685Z,11.90
2019-04-06T22:35:23.060Z,11.90
2019-04-06T22:37:55.466Z,11.90
2019-04-06T22:40:27.235Z,11.90
2019-04-06T22:43:01.269Z,11.90
2019-04-06T22:45:33.581Z,11.90
2019-04-06T22:48:04.041Z,11.80
2019-04-06T22:50:34.815Z,11.90
2019-04-06T22:53:05.641Z,11.90
2019-04-06T22:55:35.619Z,11.80
2019-04-06T22:58:06.433Z,11.70
2019-04-06T23:00:38.790Z,11.70
2019-04-06T23:03:13.843Z,11.70
2019-04-06T23:05:51.793Z,11.70
2019-04-06T23:08:22.703Z,11.70
2019-04-06T23:10:53.103Z,11.60
2019-04-06T23:13:23.929Z,11.70
2019-04-06T23:15:54.223Z,11.60
2019-04-06T23:18:25.679Z,11.60
2019-04-06T23:20:56.565Z,11.60
2019-04-06T23:23:26.762Z,11.70
2019-04-06T23:25:57.500Z,11.60
2019-04-06T23:28:28.444Z,11.70
2019-04-06T23:30:59.201Z,11.60
2019-04-06T23:33:29.292Z,11.60
2019-04-06T23:35:59.916Z,11.50
2019-04-06T23:38:30.121Z,11.60
2019-04-06T23:41:00.245Z,11.60
2019-04-06T23:43:31.029Z,11.60
2019-04-06T23:46:02.059Z,11.50
2019-04-06T23:48:32.787Z,11.50
2019-04-06T23:51:03.019Z,11.40
2019-04-06T23:53:34.376Z,11.40
2019-04-06T23:56:05.332Z,11.30
2019-04-06T23:58:35.513Z,11.30
